Nasdaq 100

Alles was Sie über den wissen sollten: Vom aktuellen Kurs und Chart bis zur Kursentwicklung der Nasdaq 100 Werte

Nasdaq 100 Realtime

ISIN: US6311011026
Symbol: NDX | Börse:

Kurszeit: 28.11.91 17:56 Uhr

19781.37

Punkte

Zeithorizont:
-54.53 Punkte
-0.27
Tageshoch
19894.81
Tagestief
19781

Nasdaq 100 Chart

  • 1 T
  • 1 W
  • 1 M
  • 6 M
  • YTD
  • 1 J
  • 5 J
  • Max
Loading ...
Loading ...

Nasdaq 100 Tops

Nasdaq 100 Flops

Eine vollständige Übersicht aller Gewinner und Verlierer des Tages, des aktuellen Jahres und weiterer Zeiträume finden Sie auf unserer Seite Nasdaq 100 Tops und Flops.

Andere Indizes

Nasdaq 100: Die Situation an der Börse aktuell

Nasdaq 100: News & Analysen



Podcast zu Nasdaq 100



Nasdaq 100: Ratgeber und Tipps



Nasdaq 100 Kurs

Kurs 19.781,37
Änderung in Punkten -54.53
Änderung in % -0.27
Datum / Zeit 28.06.24 | 18:16
Börse 2,00
Öffnungskurs 0,00
Vortag 19.835,90
T-Hoch 19.894,81
T-Tief 19.781,00
Jahreshoch 20.050,44
Jahrestief 16.172,13
Währung Punkte
Loading ...

Aktueller Nasdaq 100 Marktbericht

Nasdaq 100 Werte: Aktuelle Kurse der Einzelwerte

Loading ...
Nasdaq 100 Aktie Vortag Kurs Hoch Tief +/- % Zeit Analysen
PayPal 59,99 59,97 60,93 59,43 1,07 1,82 % 22:00
T-Mobile US 178,81 178,86 180,82 177,91 -1,66 -0,92 % 22:00
AstraZeneca ADR 77,94 77,95 78,59 77,86 0,20 0,26 % 22:00
Mondelez 65,93 65,32 65,80 64,91 -0,61 -0,93 % 22:00
Workday 226,81 226,91 228,14 222,75 3,83 1,72 % 22:00
Ansys 327,27 327,32 332,98 326,99 -3,68 -1,11 % 21:59
Amazon 199,79 195,05 200,27 192,86 -4,74 -2,37 % 22:00
Xcel Energy 54,08 54,07 54,57 52,64 1,48 2,81 % 22:00
AMD 181,94 182,12 187,11 177,25 -1,84 -1,00 % 22:00
Amgen 325,09 325,08 327,99 320,18 3,41 1,06 % 22:00
Applied Materials 241,26 241,20 255,57 241,10 -13,77 -5,40 % 22:00
Align 256,30 256,44 259,24 250,50 7,31 2,93 % 22:00
Autodesk 247,05 248,77 252,63 247,82 1,72 0,70 % 22:00
Cintas Corp. 715,88 715,75 723,64 714,71 -0,01 0,00 % 22:00
Activision Blizzard
Baker Hughes 33,84 34,51 34,59 33,71 0,67 1,98 % 22:00
Biogen 236,80 236,68 237,98 232,47 3,93 1,69 % 22:00
ASML Holding NV-NY 1.062,50 1.062,52 1.110,09 1.061,56 -36,43 -3,32 % 22:00
Costco Wholesale 884,31 846,59 890,76 846,52 -37,72 -4,27 % 22:00
Seagen
Cisco Systems 46,76 46,78 46,91 46,18 0,51 1,10 % 22:00
Datadog 127,19 127,18 129,71 125,80 0,89 0,70 % 22:00
Dollar Tree 106,73 106,72 107,54 102,75 4,24 4,14 % 22:00
CoStar Group 71,84 75,20 75,67 72,98 3,36 4,68 % 22:00
Electronic Arts 144,09 145,30 146,70 143,74 1,21 0,84 % 22:00
Paccar 101,50 103,23 104,42 101,88 1,73 1,70 % 22:00
eBay 52,98 54,02 54,18 53,28 1,04 1,96 % 22:00
Ross Stores 148,03 150,80 151,10 148,51 2,77 1,87 % 22:00
Meta Platforms 512,70 512,66 535,46 508,37 -22,03 -4,12 % 22:00
Walgreens Boots Alliance 11,43 11,44 11,67 11,34 0,18 1,55 % 22:00
Gilead 69,97 69,98 70,30 68,14 1,23 1,79 % 22:00
Microchip Technology Inc. 92,09 92,04 95,70 92,03 -3,94 -4,11 % 22:00
Keurig Dr Pepper 31,95 32,43 32,58 31,80 0,48 1,50 % 22:00
Honeywell International 214,85 214,87 216,67 213,65 0,38 0,18 % 22:00
Alphabet 192,66 187,30 192,41 186,82 -5,36 -2,78 % 22:00
Palo Alto Networks 331,04 331,03 341,25 329,12 -6,03 -1,79 % 22:00
Alphabet A 185,57 185,54 190,86 185,08 -5,64 -2,95 % 22:00
IDEXX Laboratories 483,39 487,78 494,70 486,18 4,39 0,91 % 22:00
Intel 34,87 33,50 35,15 33,31 -1,37 -3,93 % 22:00
Moderna 122,82 122,78 124,19 119,39 5,34 4,55 % 22:00
Intuit 632,84 629,41 643,17 627,22 -3,43 -0,54 % 22:00
Dexcom 112,66 112,58 113,80 110,80 1,79 1,62 % 22:00
Intuitive Surgical 444,74 443,50 449,00 442,70 -1,24 -0,28 % 22:00
Enphase Energy 106,75 111,68 115,29 108,75 4,93 4,62 % 22:00
Lululemon Athletica 289,20 289,32 295,50 288,39 1,24 0,43 % 22:00
Lucid Group 3,15 3,40 3,50 3,16 0,25 7,94 % 22:00
Monster Beverage 49,85 50,28 50,79 49,68 0,43 0,86 % 22:00
Constellation Energy 216,84 216,77 220,54 215,19 -2,78 -1,27 % 22:00
Microsoft 454,70 454,73 464,78 451,55 -11,52 -2,47 % 22:00
Adobe 564,55 557,63 572,62 557,09 -6,92 -1,23 % 22:00
Micron Technology 136,39 130,23 136,43 130,07 -6,16 -4,52 % 22:00
O Reilly Automotive 1.032,99 1.032,49 1.043,16 1.021,00 4,30 0,42 % 22:00
Netflix 652,75 652,76 672,49 647,44 -24,89 -3,67 % 22:00
Paychex 116,97 117,06 118,52 116,57 0,09 0,08 % 22:00
NVIDIA 134,91 127,40 136,15 127,05 -7,51 -5,57 % 22:00
Regeneron Pharmaceuticals 1.080,27 1.080,69 1.091,40 1.065,93 9,57 0,89 % 21:59
NXP 274,58 274,57 284,99 274,46 -7,80 -2,76 % 22:00
Sirius XM 3,61 3,63 3,70 3,45 0,12 3,42 % 22:00
Booking Holdings 3.990,05 3.936,41 3.998,99 3.926,13 -53,64 -1,34 % 22:00
Verisk Analytic CL A 275,09 275,20 279,59 274,46 -2,32 -0,84 % 21:59
PepsiCo 163,59 163,95 164,89 158,03 0,36 0,22 % 22:00
Charter Communication – A 304,14 304,17 304,70 294,39 10,22 3,48 % 22:00
Qualcomm 199,85 199,86 210,13 199,77 -8,94 -4,28 % 22:00
KLA 852,95 853,36 896,32 852,16 -39,00 -4,37 % 22:00
Starbucks 73,30 73,31 73,50 72,08 0,80 1,10 % 22:00
American Electric Power 88,25 90,84 90,98 88,61 2,59 2,93 % 22:00
Tesla 241,03 240,87 271,00 239,65 -22,39 -8,50 % 22:00
Exelon 34,69 35,32 35,51 34,73 0,63 1,82 % 22:00
Texas Instruments 199,99 199,96 204,00 199,88 -3,66 -1,80 % 22:00
Synopsys 608,74 609,00 624,80 606,98 -10,56 -1,70 % 22:00
Vertex Pharma 492,13 492,15 495,23 489,01 0,53 0,11 % 22:00
Diamondback Energy 207,17 207,16 208,30 201,58 4,77 2,36 % 22:00
Broadcom 1.744,69 1.705,95 1.764,87 1.668,50 -38,74 -2,22 % 22:00
Fortinet 59,59 58,79 59,92 58,78 -0,80 -1,34 % 22:00
Analog Devices 233,74 233,67 239,20 233,67 -4,66 -1,96 % 22:00
Cadence Design Systems 314,07 314,06 321,68 313,90 -5,74 -1,79 % 22:00
Automatic Data Processing 234,15 235,63 238,22 233,14 1,48 0,63 % 22:00
MercadoLibre 1.708,65 1.709,72 1.733,76 1.700,04 6,17 0,36 % 22:00
CSX 33,74 33,75 33,80 32,87 0,83 2,52 % 22:00
Crowdstrike Holdings 374,45 370,43 379,78 367,50 -4,02 -1,07 % 22:00
Cognizant Technology Solutions 70,14 70,16 70,40 67,88 2,33 3,44 % 22:00
Zoom Video Communications 56,60 56,58 57,39 56,06 0,58 1,04 % 22:00
Comcast 37,43 37,75 38,19 37,56 0,32 0,85 % 22:00
Pinduoduo 138,07 139,24 142,10 138,40 1,17 0,85 % 22:00
Warner Bros. Discovery 7,38 7,36 7,44 7,27 0,04 0,55 % 22:00
Copart 54,13 54,84 55,01 54,13 0,71 1,31 % 22:00
Fastenal 63,51 64,17 64,77 63,99 0,66 1,04 % 22:00
Marvell Technology 72,18 72,14 75,31 71,60 -2,74 -3,66 % 22:00
Fiserv 148,89 151,25 151,46 148,58 2,36 1,59 % 22:00
Airbnb 151,84 146,00 152,00 144,13 -5,84 -3,85 % 22:00
Illumina 113,17 118,00 119,48 114,50 4,83 4,27 % 22:00
Zscaler 195,92 195,78 203,42 194,38 -1,59 -0,81 % 22:00
JD.com ADR 26,76 28,63 28,81 27,50 1,87 6,99 % 22:00
Rivian 16,76 16,75 17,23 16,33 0,38 2,29 % 22:00
The Kraft Heinz 31,92 32,18 32,23 31,58 0,26 0,81 % 22:00
Atlassian 177,63 177,58 181,58 176,57 3,13 1,79 % 22:00
Lam Research 1.059,94 1.059,95 1.130,00 1.059,49 -67,35 -5,97 % 22:00
Old Dominion Freight Line 186,76 186,75 187,70 182,64 4,63 2,54 % 22:00
Marriott International 239,78 239,59 242,94 239,25 -2,93 -1,21 % 22:00
GLOBALFOUNDRIES 55,07 52,94 55,09 52,93 -2,13 -3,87 % 22:00
Apple 227,57 227,59 232,39 225,77 -5,39 -2,31 % 22:00

Der US-Index Nasdaq 100 umfasst die 100 grössten US-Unternehmen, die im Börsensegment Nasdaq gelistet sind und nicht zur Finanzbranche gehören. Anders als an der Nasdaq insgesamt, die durch den Nasdaq Composite-Index abgebildet wird, finden sich in diesem Index also fast ausschliesslich Technologieunternehmen. Fast, weil der Ausschluss von Unternehmen der Finanzbranche in diesem Index nicht ausschliesst, das sich mancher „Ausreisser“ aus anderen Branchen in diesem Blue Chip-Index der Nasdaq wiederfindet, so z.B. die Fluglinie American Airlines oder der Nahrungsmittelkonzern Mondelez.

Das Besondere der Nasdaq ist, dass sie eine reine „Computerbörse“ ist, d.h. es gibt hier keinen Parketthandel wie an der New York Stock Exchange. Das garantiert einen schnelleren und oft auch zuverlässigeren Handel. Der Nasdaq 100 wird seit 1985 berechnet, die Nasdaq selbst wurde aber schon 1971 gegründet. Sie war damals die erste „Computer-Börse“, was sich auch in ihrem Namen wiederfindet: NASDAQ steht für National Association of Securities Dealers Automated Quotations. Noch bis in die Neunzigerjahre wurde diese Börse von vielen mit Misstrauen gesehen, weil man das Gefühl hatte, dass Computer, die die Kurse berechneten und den Handel abwickelten, leichter zu manipulieren seien als der Parketthandel der New York Stock Exchange. Diese Skepsis verschwand aber mit den Jahren, da die befürchteten Skandale ausblieben, die Systeme zuverlässig liefen und immer mehr grosse, beim Publikum beliebte Unternehmen an der Nasdaq notiert wurden.

Der Nasdaq 100 ist – genau wie der Dow Jones –  ein reiner Kursindex, das heisst, er berechnet sich ausschliesslich aus den Kursveränderungen der in ihm enthaltenen Aktien. Anders als beim DAX heute werden Dividenden nicht in die Berechnung einbezogen. Einmal jährlich wird die Zusammensetzung des Nasdaq 100 vom Betreiber, der Nasdaq OMX Group, überprüft, die Gewichtung der einzelnen Aktien im Index erfährt viermal jährlich eine Überprüfung.